Time;durP1;ratioP1;P1;durP2;ratioP2;P2;SDS_P1;SDS_P2;PMS_P1;PMS_P2;Temp;Humidity;BMP_temperature;BMP_pressure;BME280_temperature;BME280_humidity;BME280_pressure;Samples;Min_cycle;Max_cycle;Signal;HPM_P1;HPM_P2
2023/08/15 00:00:00;;;;;;;5.75;3.90;;;18.90;99.90;;;;;;5051672;28;20238;-83
2023/08/15 00:02:28;;;;;;;5.80;4.20;;;18.90;99.90;;;;;;5054299;28;20311;-82
2023/08/15 00:04:56;;;;;;;6.75;3.90;;;18.90;99.90;;;;;;5049357;28;20227;-82
2023/08/15 00:07:42;;;;;;;7.35;4.07;;;19.00;99.90;;;;;;5055290;28;20216;-83
2023/08/15 00:10:09;;;;;;;4.15;3.38;;;18.90;99.90;;;;;;5049545;28;20230;-84
2023/08/15 00:12:36;;;;;;;6.57;3.75;;;19.00;99.90;;;;;;5051914;28;20223;-82
2023/08/15 00:15:03;;;;;;;8.00;3.55;;;18.90;99.90;;;;;;5059464;28;20856;-82
2023/08/15 00:17:31;;;;;;;7.05;3.63;;;18.90;99.90;;;;;;5050721;28;20324;-83
2023/08/15 00:19:58;;;;;;;7.03;3.90;;;18.90;99.90;;;;;;5056605;28;20238;-83
2023/08/15 00:22:25;;;;;;;7.82;4.00;;;18.90;99.90;;;;;;5054120;28;20270;-82
2023/08/15 00:24:51;;;;;;;6.63;4.13;;;18.80;99.90;;;;;;5056645;28;20224;-83
2023/08/15 00:27:18;;;;;;;6.18;3.75;;;18.80;99.90;;;;;;5056018;28;20220;-83
2023/08/15 00:29:45;;;;;;;4.55;3.80;;;18.70;99.90;;;;;;5052033;28;20228;-84
2023/08/15 00:32:12;;;;;;;7.93;4.32;;;18.70;99.90;;;;;;5053311;28;20219;-84
2023/08/15 00:34:40;;;;;;;5.70;4.63;;;18.70;99.90;;;;;;5050794;28;20247;-81
2023/08/15 00:37:07;;;;;;;6.68;4.40;;;18.70;99.90;;;;;;5048729;28;20232;-82
2023/08/15 00:39:34;;;;;;;7.13;4.30;;;18.60;99.90;;;;;;5047200;28;20314;-82
2023/08/15 00:42:01;;;;;;;4.20;3.80;;;18.60;99.90;;;;;;5048895;28;20220;-82
2023/08/15 00:44:28;;;;;;;5.85;4.03;;;18.60;99.90;;;;;;5048940;28;20314;-85
2023/08/15 00:46:55;;;;;;;7.72;4.07;;;18.60;99.90;;;;;;5051887;28;20219;-82
2023/08/15 00:49:22;;;;;;;7.65;4.80;;;18.60;99.90;;;;;;5047520;28;20766;-84
2023/08/15 00:51:50;;;;;;;5.43;4.20;;;18.60;99.90;;;;;;5049589;28;20973;-84
2023/08/15 00:54:18;;;;;;;5.32;4.32;;;18.50;99.90;;;;;;5055595;28;20776;-84
2023/08/15 00:56:44;;;;;;;7.35;4.82;;;18.50;99.90;;;;;;5041963;28;20266;-84
2023/08/15 00:59:12;;;;;;;5.63;3.58;;;18.50;99.90;;;;;;5050206;28;20248;-84
2023/08/15 01:01:39;;;;;;;7.47;4.05;;;18.50;99.90;;;;;;5045069;28;20227;-84
2023/08/15 01:04:07;;;;;;;5.78;4.13;;;18.50;99.90;;;;;;5055692;28;20239;-84
2023/08/15 01:06:34;;;;;;;7.70;4.40;;;18.50;99.90;;;;;;5049545;28;20256;-83
2023/08/15 01:09:03;;;;;;;5.63;3.90;;;18.50;99.90;;;;;;5053334;28;20915;-86
2023/08/15 01:11:37;;;;;;;6.22;3.95;;;18.40;99.90;;;;;;5049470;28;20220;-86
2023/08/15 01:14:08;;;;;;;4.88;3.97;;;18.40;99.90;;;;;;5055843;28;20238;-84
2023/08/15 01:16:39;;;;;;;10.75;4.18;;;18.40;99.90;;;;;;5054510;28;20721;-85
2023/08/15 01:19:19;;;;;;;6.22;4.30;;;18.40;99.90;;;;;;5053914;28;20220;-84
2023/08/15 01:21:50;;;;;;;6.68;3.55;;;18.30;99.90;;;;;;5054658;28;20224;-84
2023/08/15 01:24:19;;;;;;;5.70;3.85;;;18.30;99.90;;;;;;5069517;28;20722;-84
2023/08/15 01:26:46;;;;;;;6.90;4.28;;;18.30;99.90;;;;;;5065570;28;20705;-85
2023/08/15 01:29:13;;;;;;;5.65;3.97;;;18.30;99.90;;;;;;5052032;28;20310;-86
2023/08/15 01:31:44;;;;;;;5.88;4.03;;;18.30;99.90;;;;;;5057529;28;20225;-82
2023/08/15 01:34:16;;;;;;;7.03;4.65;;;18.30;99.90;;;;;;5047659;28;20231;-82
2023/08/15 01:36:46;;;;;;;6.75;4.63;;;18.20;99.90;;;;;;5052420;28;20240;-83
2023/08/15 01:39:23;;;;;;;7.88;4.95;;;18.20;99.90;;;;;;5042713;28;20547;-83
2023/08/15 01:41:52;;;;;;;7.35;4.22;;;18.20;99.90;;;;;;5067123;28;20220;-82
2023/08/15 01:44:20;;;;;;;5.47;4.32;;;18.20;99.90;;;;;;5051522;28;20720;-83
2023/08/15 01:46:47;;;;;;;8.02;5.10;;;18.20;99.90;;;;;;5045640;28;20239;-83
2023/08/15 01:49:14;;;;;;;7.18;4.50;;;18.20;99.90;;;;;;5049321;28;20232;-83
2023/08/15 01:51:41;;;;;;;6.03;5.38;;;18.10;99.90;;;;;;5057764;28;20278;-84
2023/08/15 01:54:08;;;;;;;6.28;4.80;;;18.10;99.90;;;;;;5047029;28;20700;-83
2023/08/15 01:56:37;;;;;;;9.07;4.30;;;18.10;99.90;;;;;;5052296;28;20477;-84
2023/08/15 01:59:04;;;;;;;8.73;5.18;;;18.10;99.90;;;;;;5053534;28;20300;-83
2023/08/15 02:01:31;;;;;;;5.78;4.22;;;18.10;99.90;;;;;;5057618;28;20300;-83
2023/08/15 02:03:58;;;;;;;8.13;5.13;;;18.10;99.90;;;;;;5050029;28;20224;-83
2023/08/15 02:06:25;;;;;;;6.35;5.35;;;18.10;99.90;;;;;;5051258;28;20865;-84
2023/08/15 02:08:52;;;;;;;7.63;5.55;;;18.10;99.90;;;;;;5053692;28;20244;-85
2023/08/15 02:11:19;;;;;;;7.95;5.55;;;18.10;99.90;;;;;;5056524;28;20220;-85
2023/08/15 02:13:48;;;;;;;12.80;5.18;;;18.10;99.90;;;;;;5061412;28;20219;-83
2023/08/15 02:16:14;;;;;;;9.70;6.05;;;18.00;99.90;;;;;;5051545;28;20236;-84
2023/08/15 02:18:41;;;;;;;7.25;5.68;;;18.10;99.90;;;;;;5053625;28;20315;-83
2023/08/15 02:21:10;;;;;;;10.25;6.07;;;18.10;99.90;;;;;;5051317;28;20298;-83
2023/08/15 02:23:37;;;;;;;9.15;5.72;;;18.00;99.90;;;;;;5053642;28;20216;-83
2023/08/15 02:26:03;;;;;;;5.65;5.15;;;18.00;99.90;;;;;;5050737;28;21056;-83
2023/08/15 02:28:31;;;;;;;8.18;5.85;;;18.00;99.90;;;;;;5055069;28;20224;-85
2023/08/15 02:30:59;;;;;;;9.10;5.30;;;18.00;99.90;;;;;;5054737;28;20223;-83
2023/08/15 02:33:26;;;;;;;7.22;6.53;;;18.00;99.90;;;;;;5062676;28;20906;-83
2023/08/15 02:35:53;;;;;;;9.05;6.45;;;18.00;99.90;;;;;;5052283;28;20282;-84
2023/08/15 02:38:20;;;;;;;10.95;6.85;;;18.00;99.90;;;;;;5049792;28;20614;-83
2023/08/15 02:40:47;;;;;;;8.25;6.40;;;18.00;99.90;;;;;;5053187;28;20307;-82
2023/08/15 02:43:13;;;;;;;9.88;6.80;;;18.00;99.90;;;;;;5053930;28;20326;-83
2023/08/15 02:45:40;;;;;;;10.25;6.70;;;18.00;99.90;;;;;;5054168;28;20231;-84
2023/08/15 02:48:08;;;;;;;9.65;6.45;;;18.00;99.90;;;;;;5057905;28;21095;-83
2023/08/15 02:50:35;;;;;;;10.27;7.05;;;18.00;99.90;;;;;;5050178;28;20454;-83
2023/08/15 02:53:01;;;;;;;8.57;7.28;;;18.00;99.90;;;;;;5048212;28;20220;-83
2023/08/15 02:55:27;;;;;;;9.40;7.30;;;18.00;99.90;;;;;;5049443;28;20224;-82
2023/08/15 02:57:54;;;;;;;9.80;7.65;;;18.00;99.90;;;;;;5055411;28;20224;-83
2023/08/15 03:00:21;;;;;;;7.50;6.47;;;18.00;99.90;;;;;;5050768;28;21099;-83
2023/08/15 03:02:48;;;;;;;7.35;6.65;;;18.00;99.90;;;;;;5049725;28;20216;-82
2023/08/15 03:05:16;;;;;;;9.93;7.30;;;18.00;99.90;;;;;;5051613;28;20231;-83
2023/08/15 03:07:43;;;;;;;8.30;6.78;;;18.00;99.90;;;;;;5053476;28;20281;-84
2023/08/15 03:10:10;;;;;;;8.98;6.85;;;18.00;99.90;;;;;;5050257;28;20212;-84
2023/08/15 03:12:36;;;;;;;11.13;7.57;;;18.00;99.90;;;;;;5055719;28;20310;-84
2023/08/15 03:15:04;;;;;;;8.77;6.88;;;18.00;99.90;;;;;;5046765;28;20618;-84
2023/08/15 03:17:33;;;;;;;9.63;7.28;;;18.00;99.90;;;;;;5051059;28;20676;-84
2023/08/15 03:20:00;;;;;;;8.93;7.00;;;18.00;99.90;;;;;;5051697;28;20298;-84
2023/08/15 03:22:28;;;;;;;9.30;7.72;;;18.00;99.90;;;;;;5055196;28;20220;-83
2023/08/15 03:24:58;;;;;;;8.48;7.43;;;17.90;99.90;;;;;;5054472;28;20340;-83
2023/08/15 03:27:24;;;;;;;10.38;7.90;;;18.00;99.90;;;;;;5050774;28;20801;-82
2023/08/15 03:29:52;;;;;;;10.52;8.02;;;17.90;99.90;;;;;;5053057;28;20270;-81
2023/08/15 03:32:19;;;;;;;13.00;7.85;;;17.90;99.90;;;;;;5052266;28;20281;-82
2023/08/15 03:34:46;;;;;;;13.00;8.38;;;17.90;99.90;;;;;;5047190;28;20224;-81
2023/08/15 03:37:13;;;;;;;11.20;8.55;;;17.90;99.90;;;;;;5057170;28;20249;-81
2023/08/15 03:39:41;;;;;;;10.35;7.97;;;17.90;99.90;;;;;;5057425;28;20684;-81
2023/08/15 03:42:08;;;;;;;10.55;8.00;;;17.90;99.90;;;;;;5044838;28;20274;-82
2023/08/15 03:44:35;;;;;;;8.65;7.80;;;17.90;99.90;;;;;;5062825;28;20266;-82
2023/08/15 03:47:02;;;;;;;12.43;8.73;;;17.90;99.90;;;;;;5067685;28;20224;-82
2023/08/15 03:49:29;;;;;;;10.68;8.55;;;17.90;99.90;;;;;;5049038;28;20761;-81
2023/08/15 03:51:55;;;;;;;11.23;9.25;;;18.00;99.90;;;;;;5050075;28;20220;-81
2023/08/15 03:54:22;;;;;;;13.02;9.02;;;18.00;99.90;;;;;;5051151;28;20247;-83
2023/08/15 03:56:51;;;;;;;9.60;8.52;;;18.00;99.90;;;;;;5055144;28;20256;-82
2023/08/15 03:59:18;;;;;;;10.88;8.63;;;18.10;99.90;;;;;;5051343;28;20215;-83
2023/08/15 04:01:44;;;;;;;13.80;8.73;;;18.10;99.90;;;;;;5054898;28;20312;-82
2023/08/15 04:04:11;;;;;;;9.73;8.15;;;18.20;99.90;;;;;;5053831;28;20234;-83
2023/08/15 04:06:38;;;;;;;9.27;8.35;;;18.20;99.90;;;;;;5055659;28;20243;-83
2023/08/15 04:09:06;;;;;;;12.23;8.73;;;18.20;99.90;;;;;;5053308;28;20220;-82
2023/08/15 04:11:32;;;;;;;8.75;7.85;;;18.30;99.90;;;;;;5049605;28;20289;-81
2023/08/15 04:14:01;;;;;;;10.90;8.85;;;18.30;99.90;;;;;;5054156;28;20259;-82
2023/08/15 04:16:27;;;;;;;12.32;8.43;;;18.40;99.90;;;;;;5044254;28;20356;-82
2023/08/15 04:18:54;;;;;;;10.82;8.48;;;18.40;99.90;;;;;;5048054;28;20225;-84
2023/08/15 04:21:21;;;;;;;9.57;8.18;;;18.40;99.90;;;;;;5051917;28;20775;-83
2023/08/15 04:23:47;;;;;;;9.98;8.40;;;18.50;99.90;;;;;;5053650;28;20640;-81
2023/08/15 04:26:14;;;;;;;9.82;8.82;;;18.50;99.90;;;;;;5063260;28;20237;-80
2023/08/15 04:28:41;;;;;;;10.13;8.48;;;18.50;99.90;;;;;;5050613;28;20286;-80
2023/08/15 04:31:09;;;;;;;9.80;7.97;;;18.50;99.90;;;;;;5049654;28;20398;-80
2023/08/15 04:33:35;;;;;;;12.75;8.63;;;18.60;99.90;;;;;;5053546;28;20225;-80
2023/08/15 04:36:02;;;;;;;11.73;8.55;;;18.60;99.90;;;;;;5042210;28;20220;-81
2023/08/15 04:38:29;;;;;;;10.57;7.93;;;18.70;99.90;;;;;;5066014;28;20220;-83
2023/08/15 04:40:57;;;;;;;13.05;8.82;;;18.70;99.90;;;;;;5049082;28;20243;-82
2023/08/15 04:43:24;;;;;;;9.55;8.52;;;18.70;99.90;;;;;;5053434;28;20242;-82
2023/08/15 04:45:50;;;;;;;10.23;8.05;;;18.70;99.90;;;;;;5047153;28;20232;-81
2023/08/15 04:48:18;;;;;;;11.05;8.43;;;18.70;99.90;;;;;;5044463;28;20226;-81
2023/08/15 04:50:45;;;;;;;9.80;8.60;;;18.80;99.90;;;;;;5038457;28;20224;-81
2023/08/15 04:53:12;;;;;;;9.48;8.35;;;18.80;99.90;;;;;;5045971;28;20216;-81
2023/08/15 04:55:39;;;;;;;9.73;8.73;;;18.80;99.90;;;;;;5048423;28;20235;-81
2023/08/15 04:58:09;;;;;;;10.85;8.25;;;18.90;99.90;;;;;;5042751;28;20295;-82
2023/08/15 05:00:36;;;;;;;11.32;8.60;;;18.90;99.90;;;;;;5043572;28;20227;-81
2023/08/15 05:03:04;;;;;;;11.38;8.45;;;18.90;99.90;;;;;;5050255;28;20251;-82
2023/08/15 05:05:32;;;;;;;10.98;8.48;;;19.00;99.90;;;;;;5045962;28;20224;-80
2023/08/15 05:07:59;;;;;;;8.85;7.95;;;19.00;99.90;;;;;;5058243;28;20247;-81
2023/08/15 05:10:26;;;;;;;8.88;7.95;;;19.10;99.90;;;;;;5049738;28;20986;-82
2023/08/15 05:12:56;;;;;;;8.57;7.75;;;19.10;99.90;;;;;;5052017;28;20216;-82
2023/08/15 05:15:23;;;;;;;11.00;7.90;;;19.10;99.90;;;;;;5049848;28;20698;-82
2023/08/15 05:17:50;;;;;;;11.23;7.57;;;19.20;99.90;;;;;;5050106;28;20303;-83
2023/08/15 05:20:18;;;;;;;10.30;7.30;;;19.30;99.90;;;;;;5049343;28;20216;-83
2023/08/15 05:22:46;;;;;;;12.18;8.15;;;19.30;99.90;;;;;;5050789;28;20889;-83
2023/08/15 05:25:13;;;;;;;10.48;7.78;;;19.30;99.90;;;;;;5048285;28;20282;-84
2023/08/15 05:27:46;;;;;;;7.82;6.97;;;19.40;99.90;;;;;;5054373;28;20303;-83
2023/08/15 05:30:13;;;;;;;8.75;7.22;;;19.40;99.90;;;;;;5050231;28;20311;-82
2023/08/15 05:32:40;;;;;;;9.88;7.07;;;19.40;99.90;;;;;;5054355;28;20250;-83
2023/08/15 05:35:07;;;;;;;10.70;7.93;;;19.40;99.90;;;;;;5062172;28;20243;-82
2023/08/15 05:37:34;;;;;;;10.70;7.65;;;19.50;99.90;;;;;;5047685;28;20228;-82
2023/08/15 05:40:04;;;;;;;8.10;7.25;;;19.50;99.90;;;;;;5049738;28;20231;-82
2023/08/15 05:42:30;;;;;;;9.32;7.35;;;19.50;99.90;;;;;;5057853;28;20584;-82
2023/08/15 05:44:57;;;;;;;8.40;7.60;;;19.50;99.90;;;;;;5053590;28;20220;-82
2023/08/15 05:47:24;;;;;;;9.68;8.23;;;19.60;99.90;;;;;;5047463;28;20235;-82
2023/08/15 05:49:51;;;;;;;8.65;7.28;;;19.60;99.90;;;;;;5048167;28;20242;-82
2023/08/15 05:52:18;;;;;;;8.90;7.63;;;19.70;99.90;;;;;;5050320;28;20278;-82
2023/08/15 05:54:44;;;;;;;8.32;7.03;;;19.80;99.90;;;;;;5056855;28;20237;-82
2023/08/15 05:57:12;;;;;;;8.07;6.85;;;19.90;99.90;;;;;;5054378;28;20247;-82
2023/08/15 05:59:39;;;;;;;10.85;7.43;;;20.00;99.90;;;;;;5055013;28;20247;-82
2023/08/15 06:02:06;;;;;;;7.18;6.45;;;20.20;99.90;;;;;;5035805;28;20679;-82
2023/08/15 06:04:33;;;;;;;12.13;6.88;;;20.30;99.90;;;;;;5053175;28;20849;-82
2023/08/15 06:07:00;;;;;;;8.75;6.97;;;20.40;99.90;;;;;;5055133;28;20228;-82
2023/08/15 06:09:27;;;;;;;7.00;5.80;;;20.60;99.90;;;;;;5055822;28;20234;-82
2023/08/15 06:11:53;;;;;;;7.78;5.60;;;20.70;99.90;;;;;;5050012;28;20224;-82
2023/08/15 06:14:21;;;;;;;7.20;5.72;;;20.90;99.90;;;;;;5071673;28;20965;-82
2023/08/15 06:16:49;;;;;;;9.18;5.97;;;21.00;99.90;;;;;;5066006;28;20238;-81
2023/08/15 06:19:16;;;;;;;7.70;5.85;;;21.20;99.90;;;;;;5051919;28;20224;-82
2023/08/15 06:21:42;;;;;;;9.57;6.13;;;21.40;99.90;;;;;;5051449;28;20727;-82
2023/08/15 06:24:09;;;;;;;12.40;6.40;;;21.50;99.90;;;;;;5053152;28;20599;-82
2023/08/15 06:26:36;;;;;;;7.07;6.32;;;21.50;99.90;;;;;;5053404;28;20231;-82
2023/08/15 06:29:04;;;;;;;8.93;5.57;;;21.60;99.90;;;;;;5051815;28;20224;-82
2023/08/15 06:31:32;;;;;;;6.88;5.53;;;21.60;99.90;;;;;;5047032;28;20335;-82
2023/08/15 06:33:59;;;;;;;7.70;5.82;;;21.50;99.90;;;;;;5051207;28;21022;-82
2023/08/15 06:36:26;;;;;;;7.15;5.50;;;21.60;99.90;;;;;;5046279;28;20310;-82
2023/08/15 06:38:52;;;;;;;9.05;6.32;;;21.60;99.90;;;;;;5051235;28;20234;-82
2023/08/15 06:41:19;;;;;;;6.18;5.57;;;21.60;99.90;;;;;;5054254;28;20217;-82
2023/08/15 06:43:46;;;;;;;6.30;5.70;;;21.60;99.90;;;;;;5049501;28;20773;-82
2023/08/15 06:46:13;;;;;;;6.72;5.20;;;21.60;99.90;;;;;;5052219;28;20229;-83
2023/08/15 06:48:41;;;;;;;6.60;5.28;;;21.60;99.90;;;;;;5049892;28;20219;-82
2023/08/15 06:51:08;;;;;;;6.10;5.47;;;21.70;99.90;;;;;;5061766;28;20223;-83
2023/08/15 06:53:35;;;;;;;6.65;5.95;;;21.70;99.90;;;;;;5044363;28;20220;-82
2023/08/15 06:56:01;;;;;;;11.02;5.85;;;21.70;99.90;;;;;;5048940;28;20255;-83
2023/08/15 06:58:28;;;;;;;7.20;5.78;;;21.80;99.90;;;;;;5049884;28;20224;-82
2023/08/15 07:00:55;;;;;;;7.57;5.68;;;21.80;99.90;;;;;;5070793;28;20221;-82
2023/08/15 07:03:22;;;;;;;9.65;6.32;;;21.80;99.90;;;;;;5049503;28;20223;-83
2023/08/15 07:05:50;;;;;;;7.88;5.57;;;21.90;99.90;;;;;;5050128;28;20916;-83
2023/08/15 07:08:17;;;;;;;6.22;5.15;;;22.00;99.90;;;;;;5047064;28;20224;-83
2023/08/15 07:10:44;;;;;;;9.50;6.05;;;22.10;99.90;;;;;;5048003;28;20216;-83
2023/08/15 07:13:11;;;;;;;7.88;5.53;;;22.00;99.90;;;;;;5045320;28;20215;-82
2023/08/15 07:15:38;;;;;;;7.00;5.75;;;22.20;99.90;;;;;;5051618;28;20255;-83
2023/08/15 07:18:05;;;;;;;5.90;5.30;;;22.20;99.90;;;;;;5043120;28;20224;-83
2023/08/15 07:20:32;;;;;;;9.77;5.97;;;22.30;99.90;;;;;;5045065;28;20235;-83
2023/08/15 07:23:00;;;;;;;9.52;5.95;;;22.30;99.90;;;;;;5045555;28;20227;-82
2023/08/15 07:25:27;;;;;;;6.85;5.50;;;22.40;99.90;;;;;;5047523;28;20247;-82
2023/08/15 07:27:54;;;;;;;6.93;5.18;;;22.40;99.90;;;;;;5070004;28;20226;-83
2023/08/15 07:30:20;;;;;;;8.95;5.45;;;22.50;99.90;;;;;;5054088;28;20826;-83
2023/08/15 07:32:47;;;;;;;6.13;5.00;;;22.50;99.90;;;;;;5046601;28;20256;-83
2023/08/15 07:35:14;;;;;;;5.95;4.90;;;22.60;99.90;;;;;;5044809;28;20328;-83
2023/08/15 07:37:40;;;;;;;6.97;5.57;;;22.60;99.90;;;;;;5042616;28;20231;-82
2023/08/15 07:40:10;;;;;;;5.75;4.97;;;22.60;99.90;;;;;;5050743;28;20219;-82
2023/08/15 07:42:37;;;;;;;8.68;5.38;;;22.60;99.90;;;;;;5051360;28;20752;-82
2023/08/15 07:45:04;;;;;;;7.35;4.72;;;22.50;99.90;;;;;;5055961;28;20257;-82
2023/08/15 07:47:34;;;;;;;5.80;5.20;;;22.50;99.90;;;;;;5047059;28;20226;-82
2023/08/15 07:50:13;;;;;;;6.40;5.00;;;22.40;99.90;;;;;;5051190;28;20220;-82
2023/08/15 07:52:39;;;;;;;7.00;5.10;;;22.30;99.90;;;;;;5048219;28;20232;-82
2023/08/15 07:55:07;;;;;;;5.97;4.97;;;22.20;99.90;;;;;;5057434;28;20227;-83
2023/08/15 07:57:35;;;;;;;6.45;5.57;;;22.10;99.90;;;;;;5054969;28;20231;-83
2023/08/15 08:00:03;;;;;;;9.55;5.55;;;22.00;99.90;;;;;;5046082;28;20230;-82
2023/08/15 08:02:39;;;;;;;9.15;5.30;;;21.90;99.90;;;;;;5048386;28;20227;-83
2023/08/15 08:05:07;;;;;;;6.53;5.25;;;21.80;99.90;;;;;;5051071;28;20231;-83
2023/08/15 08:07:34;;;;;;;7.25;4.95;;;21.70;99.90;;;;;;5049245;28;20567;-83
2023/08/15 08:10:01;;;;;;;8.20;5.15;;;21.70;99.90;;;;;;5044829;28;20220;-83
2023/08/15 08:12:27;;;;;;;8.43;5.60;;;21.60;99.90;;;;;;5049064;28;20706;-82
2023/08/15 08:14:56;;;;;;;7.82;5.43;;;21.50;99.90;;;;;;5051932;28;20222;-83
2023/08/15 08:17:22;;;;;;;8.43;5.68;;;21.50;99.90;;;;;;5053478;28;20228;-82
2023/08/15 08:19:49;;;;;;;9.40;5.82;;;21.40;99.90;;;;;;5053380;28;20226;-83
2023/08/15 08:22:16;;;;;;;7.28;5.50;;;21.40;99.90;;;;;;5044400;28;21928;-83
2023/08/15 08:24:43;;;;;;;9.85;5.90;;;21.40;99.90;;;;;;5050367;28;20218;-83
2023/08/15 08:27:10;;;;;;;6.10;5.50;;;21.30;99.90;;;;;;5045573;28;20227;-84
2023/08/15 08:29:36;;;;;;;7.88;5.53;;;21.30;99.90;;;;;;5050339;28;20231;-85
2023/08/15 08:32:04;;;;;;;11.30;6.13;;;21.20;99.90;;;;;;5056020;28;20220;-84
2023/08/15 08:34:31;;;;;;;9.15;6.10;;;21.20;99.90;;;;;;5056165;28;20224;-84
2023/08/15 08:36:58;;;;;;;7.18;5.80;;;21.10;99.90;;;;;;5053420;28;20238;-84
2023/08/15 08:39:24;;;;;;;7.07;5.85;;;21.00;99.90;;;;;;5053760;28;20227;-83
2023/08/15 08:41:51;;;;;;;7.13;6.18;;;21.00;99.90;;;;;;5055153;28;20893;-84
2023/08/15 08:44:19;;;;;;;9.52;7.15;;;20.90;99.90;;;;;;5055084;28;20221;-84
2023/08/15 08:46:46;;;;;;;8.93;7.30;;;20.90;99.90;;;;;;5039198;28;20232;-85
2023/08/15 08:49:16;;;;;;;7.95;6.22;;;20.90;99.90;;;;;;5058708;28;20230;-84
2023/08/15 08:51:43;;;;;;;6.55;5.85;;;20.80;99.90;;;;;;5056397;28;20717;-83
2023/08/15 08:54:10;;;;;;;9.02;6.45;;;20.80;99.90;;;;;;5051082;28;20263;-83
2023/08/15 08:56:40;;;;;;;9.60;7.38;;;20.80;99.90;;;;;;5059537;28;20243;-83
2023/08/15 08:59:11;;;;;;;8.00;7.18;;;20.90;99.90;;;;;;5062064;28;20243;-85
2023/08/15 09:01:39;;;;;;;8.10;7.22;;;21.00;99.90;;;;;;5058304;28;20223;-84
2023/08/15 09:04:06;;;;;;;8.90;7.18;;;21.00;99.90;;;;;;5053331;28;20211;-84
2023/08/15 09:06:34;;;;;;;9.82;7.68;;;21.10;99.90;;;;;;5055968;28;20254;-84
2023/08/15 09:09:01;;;;;;;7.97;6.82;;;21.20;99.90;;;;;;5061828;28;20216;-83
2023/08/15 09:11:33;;;;;;;7.70;6.35;;;21.40;99.90;;;;;;5048819;28;20227;-84
2023/08/15 09:14:03;;;;;;;9.10;6.60;;;21.40;99.90;;;;;;5051128;28;20220;-83
2023/08/15 09:16:31;;;;;;;7.07;6.38;;;21.50;99.90;;;;;;5057348;28;20227;-83
2023/08/15 09:19:00;;;;;;;8.05;6.90;;;21.50;99.90;;;;;;5049979;28;20243;-83
2023/08/15 09:21:28;;;;;;;10.65;7.43;;;21.50;99.90;;;;;;5051547;28;20234;-85
2023/08/15 09:23:56;;;;;;;8.32;7.00;;;21.50;99.90;;;;;;5056991;28;20228;-84
2023/08/15 09:26:25;;;;;;;11.27;8.05;;;21.50;99.90;;;;;;5058884;28;20231;-84
2023/08/15 09:28:51;;;;;;;10.32;6.97;;;21.60;99.90;;;;;;5054141;28;20220;-84
2023/08/15 09:31:19;;;;;;;9.30;7.35;;;21.70;99.90;;;;;;5051320;28;20227;-84
2023/08/15 09:33:47;;;;;;;8.65;7.60;;;21.80;99.90;;;;;;5047178;28;20224;-84
2023/08/15 09:36:15;;;;;;;9.93;7.40;;;22.00;99.90;;;;;;5057228;28;20219;-84
2023/08/15 09:38:42;;;;;;;8.07;6.32;;;22.10;99.90;;;;;;5072328;28;20215;-83
2023/08/15 09:41:13;;;;;;;8.77;6.55;;;22.20;99.90;;;;;;5055916;28;20720;-83
2023/08/15 09:43:50;;;;;;;9.15;6.72;;;22.40;99.90;;;;;;5055917;28;20232;-83
2023/08/15 09:46:17;;;;;;;9.20;6.43;;;22.40;99.90;;;;;;5048742;28;20806;-83
2023/08/15 09:48:45;;;;;;;8.60;6.30;;;22.60;99.90;;;;;;5052900;28;20597;-83
2023/08/15 09:51:15;;;;;;;9.07;6.18;;;22.90;99.90;;;;;;5045158;28;20220;-83
2023/08/15 09:53:43;;;;;;;7.60;5.90;;;23.10;99.90;;;;;;5051675;28;20269;-83
2023/08/15 09:56:11;;;;;;;7.05;5.85;;;23.40;99.90;;;;;;5047751;28;20690;-83
2023/08/15 09:58:39;;;;;;;7.68;6.18;;;23.80;99.90;;;;;;5052783;28;20224;-83
2023/08/15 10:01:08;;;;;;;8.05;5.78;;;24.10;99.90;;;;;;5054984;28;20231;-83
2023/08/15 10:03:37;;;;;;;9.82;4.93;;;24.50;99.90;;;;;;5046798;28;20575;-83
2023/08/15 10:06:07;;;;;;;6.95;5.03;;;24.90;99.90;;;;;;5052579;28;20224;-83
2023/08/15 10:08:36;;;;;;;6.60;5.07;;;25.30;99.90;;;;;;5049331;28;20727;-83
2023/08/15 10:11:04;;;;;;;5.78;4.13;;;25.70;99.90;;;;;;5048093;28;20219;-84
2023/08/15 10:13:34;;;;;;;6.15;4.40;;;26.10;99.90;;;;;;5060360;28;20310;-84
2023/08/15 10:16:03;;;;;;;4.97;4.50;;;26.50;99.90;;;;;;5050851;28;20234;-84
2023/08/15 10:18:31;;;;;;;5.60;4.55;;;26.90;99.90;;;;;;5044976;28;20227;-84
2023/08/15 10:20:58;;;;;;;5.45;4.13;;;27.30;99.90;;;;;;5051234;28;20693;-84
2023/08/15 10:23:27;;;;;;;5.53;4.18;;;27.70;99.90;;;;;;5046205;28;20227;-84
2023/08/15 10:25:54;;;;;;;5.97;3.85;;;28.10;99.90;;;;;;5047417;28;20843;-85
2023/08/15 10:28:21;;;;;;;5.60;3.92;;;28.40;99.90;;;;;;5047829;28;20231;-84
2023/08/15 10:30:50;;;;;;;5.82;3.67;;;28.70;99.90;;;;;;5052149;28;20566;-84
2023/08/15 10:33:19;;;;;;;5.90;3.58;;;29.00;99.90;;;;;;5052603;28;20221;-85
2023/08/15 10:35:50;;;;;;;4.68;3.35;;;29.30;99.90;;;;;;5062451;28;20228;-84
2023/08/15 10:38:19;;;;;;;5.50;3.58;;;29.50;99.90;;;;;;5056701;28;20231;-84
2023/08/15 10:40:46;;;;;;;7.10;3.83;;;29.70;99.90;;;;;;5056815;28;20223;-84
2023/08/15 10:43:15;;;;;;;7.30;3.65;;;29.80;99.90;;;;;;5043647;28;20311;-84
2023/08/15 10:45:44;;;;;;;5.05;3.63;;;29.90;99.90;;;;;;5056046;28;20227;-84
2023/08/15 10:48:13;;;;;;;5.65;3.60;;;29.90;99.90;;;;;;5046090;28;20220;-84
2023/08/15 10:50:47;;;;;;;7.63;3.72;;;29.70;99.90;;;;;;5049228;28;20300;-84
2023/08/15 10:53:15;;;;;;;5.03;3.85;;;29.40;99.90;;;;;;5068738;28;20238;-84
2023/08/15 10:55:42;;;;;;;4.28;3.20;;;29.20;99.90;;;;;;5055274;28;20633;-84
2023/08/15 10:58:10;;;;;;;5.18;3.45;;;28.90;99.90;;;;;;5047303;28;20239;-84
2023/08/15 11:00:37;;;;;;;4.93;3.40;;;28.80;99.90;;;;;;5047801;28;20714;-85
2023/08/15 11:03:06;;;;;;;5.57;3.78;;;28.70;99.90;;;;;;5055448;28;20900;-84
2023/08/15 11:05:35;;;;;;;5.30;3.40;;;28.70;99.90;;;;;;5046237;28;21015;-83
2023/08/15 11:08:15;;;;;;;6.90;3.58;;;28.70;99.90;;;;;;5047452;28;20308;-84
2023/08/15 11:10:48;;;;;;;4.43;3.70;;;28.90;99.90;;;;;;5052972;28;20302;-83
2023/08/15 11:13:15;;;;;;;5.55;3.80;;;29.10;99.90;;;;;;5062556;28;20698;-83
2023/08/15 11:15:42;;;;;;;4.03;3.63;;;29.30;99.90;;;;;;5066270;28;20284;-83
2023/08/15 11:18:09;;;;;;;4.93;3.90;;;29.50;99.90;;;;;;5049487;28;20234;-83
2023/08/15 11:20:37;;;;;;;7.07;4.15;;;29.70;99.90;;;;;;5048383;28;20227;-83
2023/08/15 11:23:04;;;;;;;4.53;3.63;;;29.80;99.90;;;;;;5049685;28;20303;-83
2023/08/15 11:25:30;;;;;;;5.18;3.60;;;29.70;99.90;;;;;;5058102;28;20227;-82
2023/08/15 11:27:57;;;;;;;5.82;3.70;;;29.60;99.90;;;;;;5052491;28;20230;-83
2023/08/15 11:30:27;;;;;;;5.97;3.83;;;29.20;99.90;;;;;;5055981;28;20307;-83
2023/08/15 11:32:54;;;;;;;5.47;4.25;;;29.00;99.90;;;;;;5053396;28;20227;-83
2023/08/15 11:35:21;;;;;;;5.40;3.70;;;28.70;99.90;;;;;;5045170;28;20219;-83
2023/08/15 11:37:49;;;;;;;6.00;4.32;;;28.50;99.90;;;;;;5050749;28;20231;-83
2023/08/15 11:40:15;;;;;;;4.60;4.20;;;28.40;99.90;;;;;;5047175;28;20220;-83
2023/08/15 11:42:42;;;;;;;7.00;4.28;;;28.40;99.90;;;;;;5049670;28;20224;-83
2023/08/15 11:45:17;;;;;;;4.72;4.25;;;28.40;99.90;;;;;;5052760;28;20723;-83
2023/08/15 11:47:58;;;;;;;5.30;4.30;;;28.50;99.90;;;;;;5051927;28;20237;-83
2023/08/15 11:50:26;;;;;;;4.55;3.70;;;28.70;99.90;;;;;;5048977;28;20227;-83
2023/08/15 11:52:55;;;;;;;5.32;3.90;;;29.00;99.90;;;;;;5045877;28;20224;-83
2023/08/15 11:55:22;;;;;;;5.63;4.10;;;29.30;99.90;;;;;;5068456;28;20232;-83
2023/08/15 11:57:50;;;;;;;4.80;3.90;;;29.50;99.90;;;;;;5046467;28;20299;-83
2023/08/15 12:00:19;;;;;;;4.75;4.00;;;29.80;99.90;;;;;;5051710;28;20777;-83
2023/08/15 12:02:48;;;;;;;4.97;3.95;;;30.00;99.90;;;;;;5052763;28;20222;-83
2023/08/15 12:05:16;;;;;;;4.38;3.45;;;30.20;99.90;;;;;;5042939;28;20242;-83
2023/08/15 12:07:44;;;;;;;6.60;4.00;;;30.40;99.80;;;;;;5049296;28;20259;-83
2023/08/15 12:10:13;;;;;;;4.32;3.35;;;30.50;99.20;;;;;;5049993;28;20813;-83
2023/08/15 12:12:42;;;;;;;7.43;3.72;;;30.70;98.60;;;;;;5049474;28;20227;-83
2023/08/15 12:15:10;;;;;;;6.15;3.78;;;30.80;99.00;;;;;;5055202;28;20231;-84
2023/08/15 12:17:38;;;;;;;4.10;3.55;;;30.90;98.40;;;;;;5064827;28;20307;-84
2023/08/15 12:20:06;;;;;;;4.97;4.20;;;30.90;97.60;;;;;;5053093;28;20308;-84
2023/08/15 12:22:33;;;;;;;4.90;3.90;;;31.00;97.10;;;;;;5049539;28;20307;-83
2023/08/15 12:25:00;;;;;;;5.70;3.85;;;30.80;97.00;;;;;;5054909;28;20235;-83
2023/08/15 12:27:29;;;;;;;5.50;4.20;;;30.60;97.20;;;;;;5054841;28;20307;-83
2023/08/15 12:29:55;;;;;;;6.00;4.82;;;30.40;97.40;;;;;;5054085;28;20247;-84
2023/08/15 12:32:22;;;;;;;8.55;5.40;;;30.10;99.70;;;;;;5056143;28;20219;-83
2023/08/15 12:34:49;;;;;;;9.52;6.32;;;29.70;99.30;;;;;;5053334;28;20220;-83
2023/08/15 12:37:15;;;;;;;9.98;6.18;;;29.40;98.90;;;;;;5052735;28;20242;-84
2023/08/15 12:39:42;;;;;;;8.18;6.03;;;29.20;99.30;;;;;;5054450;28;20227;-84
2023/08/15 12:42:09;;;;;;;6.55;5.90;;;29.00;99.60;;;;;;5055686;28;20220;-85
2023/08/15 12:44:37;;;;;;;7.07;6.28;;;28.90;99.80;;;;;;5050895;28;20303;-84
2023/08/15 12:47:04;;;;;;;9.23;6.88;;;29.00;99.50;;;;;;5056798;28;20718;-84